< < Back
Terminal Aerodrome Forecast


Current Version              Previous Versions:   1  2  3  4  5  6  7  8  9  

Terminal Aerodrome Forecast

144
FTUS42 KILM 231133
TAFFLO
TAF
KFLO 231133Z 2312/2412 25005KT P6SM FEW040 FEW250
     FM231800 23008KT P6SM VCTS SCT040CB SCT250
     FM240200 20005KT P6SM FEW050 FEW250=

Latest METAR

960
SAUS70 KWBC 241400 RRK
MTRFLO
METAR KFLO 241353Z VRB04KT 10SM CLR 30/24 A3004 RMK AO2 SLP169
T03000239


USA.gov is the U.S. government's official web portal to all federal, state and local government web resources and services.